Time;durP1;ratioP1;P1;durP2;ratioP2;P2;SDS_P1;SDS_P2;PMS_P1;PMS_P2;Temp;Humidity;BMP_temperature;BMP_pressure;BME280_temperature;BME280_humidity;BME280_pressure;Samples;Min_cycle;Max_cycle;Signal;HPM_P1;HPM_P2
2023/05/13 00:01:15;;;;;;;25.07;23.53;;;;;;;;;;5044240;28;20507;-84
2023/05/13 00:03:42;;;;;;;25.97;24.17;;;;;;;;;;5044755;28;20487;-85
2023/05/13 00:06:09;;;;;;;25.60;24.13;;;;;;;;;;5044970;28;20466;-85
2023/05/13 00:08:36;;;;;;;26.20;24.43;;;;;;;;;;5044842;28;20422;-85
2023/05/13 00:11:03;;;;;;;25.60;23.90;;;;;;;;;;5044268;28;20502;-85
2023/05/13 00:13:30;;;;;;;25.70;24.20;;;;;;;;;;5044949;28;20448;-85
2023/05/13 00:15:57;;;;;;;26.10;24.50;;;;;;;;;;5043702;28;20466;-85
2023/05/13 00:18:25;;;;;;;26.47;24.47;;;;;;;;;;5043434;28;20470;-85
2023/05/13 00:20:52;;;;;;;25.83;24.23;;;;;;;;;;5043626;28;20808;-84
2023/05/13 00:23:19;;;;;;;26.47;24.77;;;;;;;;;;5043099;28;20521;-85
2023/05/13 00:25:46;;;;;;;25.17;23.60;;;;;;;;;;5043692;28;20811;-85
2023/05/13 00:28:13;;;;;;;26.83;25.13;;;;;;;;;;5043120;28;20456;-85
2023/05/13 00:30:42;;;;;;;26.07;24.40;;;;;;;;;;5043071;28;20991;-85
2023/05/13 00:33:09;;;;;;;26.20;24.60;;;;;;;;;;5043037;28;20423;-85
2023/05/13 00:35:38;;;;;;;25.77;24.27;;;;;;;;;;5042370;28;20978;-85
2023/05/13 00:38:05;;;;;;;26.67;25.10;;;;;;;;;;5043637;28;20448;-85
2023/05/13 00:40:34;;;;;;;26.73;25.07;;;;;;;;;;5043139;28;20563;-85
2023/05/13 00:43:01;;;;;;;25.00;23.50;;;;;;;;;;5042213;28;20879;-84
2023/05/13 00:45:28;;;;;;;26.20;24.60;;;;;;;;;;5042771;28;20497;-85
2023/05/13 00:47:55;;;;;;;26.50;24.90;;;;;;;;;;5042141;28;20447;-85
2023/05/13 00:50:22;;;;;;;25.87;24.10;;;;;;;;;;5042386;28;20496;-85
2023/05/13 00:52:51;;;;;;;25.93;24.50;;;;;;;;;;5042575;28;20474;-85
2023/05/13 00:55:18;;;;;;;25.67;24.27;;;;;;;;;;5042954;28;20433;-85
2023/05/13 00:57:45;;;;;;;26.63;24.77;;;;;;;;;;5041666;28;20447;-85
2023/05/13 01:00:14;;;;;;;25.70;23.90;;;;;;;;;;5042057;28;20850;-85
2023/05/13 01:02:45;;;;;;;26.47;24.67;;;;;;;;;;5042548;28;20461;-85
2023/05/13 01:05:19;;;;;;;25.83;24.17;;;;;;;;;;5042548;28;20570;-85
2023/05/13 01:07:50;;;;;;;26.47;24.33;;;;;;;;;;5040813;28;20391;-84
2023/05/13 01:10:21;;;;;;;25.33;23.93;;;;;;;;;;5041823;28;20876;-85
2023/05/13 01:12:49;;;;;;;25.27;23.73;;;;;;;;;;5042012;28;20419;-85
2023/05/13 01:15:17;;;;;;;25.00;23.27;;;;;;;;;;5041382;28;20839;-85
2023/05/13 01:17:48;;;;;;;25.77;23.67;;;;;;;;;;5041241;28;20440;-85
2023/05/13 01:20:17;;;;;;;25.00;23.40;;;;;;;;;;5041554;28;20473;-85
2023/05/13 01:22:46;;;;;;;25.50;23.90;;;;;;;;;;5042822;28;20727;-85
2023/05/13 01:25:13;;;;;;;26.47;24.67;;;;;;;;;;5042086;28;20454;-85
2023/05/13 01:27:40;;;;;;;26.10;24.60;;;;;;;;;;5041013;28;20418;-85
2023/05/13 01:30:09;;;;;;;27.60;25.90;;;;;;;;;;5041306;28;20835;-85
2023/05/13 01:32:37;;;;;;;26.93;25.17;;;;;;;;;;5041477;28;20421;-85
2023/05/13 01:35:04;;;;;;;26.30;24.60;;;;;;;;;;5041313;28;20934;-85
2023/05/13 01:37:31;;;;;;;27.67;25.77;;;;;;;;;;5040643;28;20480;-84
2023/05/13 01:40:01;;;;;;;28.80;26.37;;;;;;;;;;5041318;28;20475;-85
2023/05/13 01:42:30;;;;;;;27.60;25.70;;;;;;;;;;5041023;28;20456;-85
2023/05/13 01:44:58;;;;;;;27.70;25.93;;;;;;;;;;5041324;28;20479;-85
2023/05/13 01:47:25;;;;;;;26.87;24.97;;;;;;;;;;5041642;28;20445;-85
2023/05/13 01:49:52;;;;;;;27.27;25.50;;;;;;;;;;5040530;28;20581;-85
2023/05/13 01:52:19;;;;;;;27.63;25.77;;;;;;;;;;5040767;28;20484;-85
2023/05/13 01:54:46;;;;;;;25.40;23.83;;;;;;;;;;5041418;28;20537;-85
2023/05/13 01:57:14;;;;;;;26.43;24.70;;;;;;;;;;5040577;28;20455;-84
2023/05/13 01:59:41;;;;;;;27.30;25.57;;;;;;;;;;5040571;28;20442;-85
2023/05/13 02:02:08;;;;;;;26.93;25.03;;;;;;;;;;5040960;28;20407;-85
2023/05/13 02:04:35;;;;;;;25.67;24.17;;;;;;;;;;5040108;28;20450;-85
2023/05/13 02:07:02;;;;;;;26.77;25.27;;;;;;;;;;5039391;28;20468;-85
2023/05/13 02:09:29;;;;;;;24.83;23.37;;;;;;;;;;5040828;28;20463;-85
2023/05/13 02:11:57;;;;;;;27.37;25.30;;;;;;;;;;5040940;28;20447;-85
2023/05/13 02:14:25;;;;;;;25.90;24.20;;;;;;;;;;5040314;28;20493;-85
2023/05/13 02:16:52;;;;;;;27.17;25.33;;;;;;;;;;5040069;28;20449;-85
2023/05/13 02:19:27;;;;;;;25.67;24.17;;;;;;;;;;5040475;28;20455;-85
2023/05/13 02:21:54;;;;;;;26.70;25.00;;;;;;;;;;5039879;28;20394;-85
2023/05/13 02:24:21;;;;;;;26.80;25.00;;;;;;;;;;5039934;28;20537;-85
2023/05/13 02:26:48;;;;;;;27.57;25.80;;;;;;;;;;5039600;28;20784;-85
2023/05/13 02:29:15;;;;;;;26.50;24.80;;;;;;;;;;5040021;28;20464;-85
2023/05/13 02:31:43;;;;;;;25.83;24.00;;;;;;;;;;5039682;28;20516;-85
2023/05/13 02:34:10;;;;;;;25.40;24.00;;;;;;;;;;5040199;28;20422;-85
2023/05/13 02:36:37;;;;;;;26.67;25.07;;;;;;;;;;5039612;28;20792;-85
2023/05/13 02:39:04;;;;;;;26.53;24.73;;;;;;;;;;5040189;28;20475;-84
2023/05/13 02:41:31;;;;;;;26.63;24.70;;;;;;;;;;5039580;28;20478;-85
2023/05/13 02:43:58;;;;;;;25.97;24.47;;;;;;;;;;5040157;28;20537;-85
2023/05/13 02:46:26;;;;;;;26.77;24.97;;;;;;;;;;5038372;28;20440;-83
2023/05/13 02:48:54;;;;;;;25.87;24.20;;;;;;;;;;5039230;28;20437;-85
2023/05/13 02:51:21;;;;;;;26.03;24.53;;;;;;;;;;5039343;28;20438;-85
2023/05/13 02:53:48;;;;;;;26.33;24.80;;;;;;;;;;5039559;28;20407;-85
2023/05/13 02:56:16;;;;;;;27.97;25.90;;;;;;;;;;5039474;28;20473;-84
2023/05/13 02:58:43;;;;;;;25.97;24.27;;;;;;;;;;5039247;28;20477;-85
2023/05/13 03:01:10;;;;;;;26.63;24.83;;;;;;;;;;5039678;28;21010;-85
2023/05/13 03:03:37;;;;;;;25.87;24.03;;;;;;;;;;5038879;28;20497;-85
2023/05/13 03:06:05;;;;;;;27.07;25.07;;;;;;;;;;5039194;28;20474;-84
2023/05/13 03:08:32;;;;;;;26.70;24.70;;;;;;;;;;5039400;28;20470;-84
2023/05/13 03:10:59;;;;;;;27.10;25.30;;;;;;;;;;5039588;28;20500;-85
2023/05/13 03:13:26;;;;;;;26.30;24.70;;;;;;;;;;5039227;28;20439;-85
2023/05/13 03:15:53;;;;;;;27.67;25.97;;;;;;;;;;5036881;28;20451;-84
2023/05/13 03:18:20;;;;;;;26.03;24.33;;;;;;;;;;5034036;28;20411;-84
2023/05/13 03:20:47;;;;;;;26.90;25.30;;;;;;;;;;5035194;28;20450;-84
2023/05/13 03:23:16;;;;;;;27.73;25.60;;;;;;;;;;5035768;28;20444;-85
2023/05/13 03:25:43;;;;;;;27.70;25.77;;;;;;;;;;5036044;28;20458;-84
2023/05/13 03:28:10;;;;;;;27.17;25.37;;;;;;;;;;5036767;28;20440;-85
2023/05/13 03:30:37;;;;;;;27.10;25.50;;;;;;;;;;5036649;28;20473;-84
2023/05/13 03:33:04;;;;;;;27.37;25.67;;;;;;;;;;5038612;28;20436;-85
2023/05/13 03:35:31;;;;;;;26.57;24.97;;;;;;;;;;5037398;28;20418;-85
2023/05/13 03:37:58;;;;;;;27.00;25.33;;;;;;;;;;5041364;28;20498;-85
2023/05/13 03:40:26;;;;;;;27.17;25.40;;;;;;;;;;5042348;28;20461;-85
2023/05/13 03:42:53;;;;;;;27.23;25.53;;;;;;;;;;5041341;28;20422;-81
2023/05/13 03:45:20;;;;;;;28.67;26.67;;;;;;;;;;5043645;28;20472;-81
2023/05/13 03:47:47;;;;;;;27.80;25.87;;;;;;;;;;5044159;28;20422;-81
2023/05/13 03:50:14;;;;;;;26.67;24.87;;;;;;;;;;5044573;28;20475;-81
2023/05/13 03:52:41;;;;;;;27.93;26.20;;;;;;;;;;5049321;28;20430;-81
2023/05/13 03:55:09;;;;;;;27.10;25.60;;;;;;;;;;5058826;28;20432;-81
2023/05/13 03:57:37;;;;;;;28.70;26.60;;;;;;;;;;5058479;28;20414;-81
2023/05/13 04:00:04;;;;;;;28.60;26.60;;;;;;;;;;5052853;28;20438;-81
2023/05/13 04:02:31;;;;;;;27.57;25.73;;;;;;;;;;5045592;28;20414;-81
2023/05/13 04:04:58;;;;;;;28.87;27.07;;;;;;;;;;5045479;28;20520;-82
2023/05/13 04:07:25;;;;;;;28.13;26.33;;;;;;;;;;5044862;28;20501;-81
2023/05/13 04:09:52;;;;;;;29.13;27.33;;;;;;;;;;5044809;28;20459;-81
2023/05/13 04:12:19;;;;;;;28.83;27.13;;;;;;;;;;5044556;28;20432;-81
2023/05/13 04:14:47;;;;;;;28.43;26.40;;;;;;;;;;5043772;28;20483;-81
2023/05/13 04:17:14;;;;;;;28.17;26.47;;;;;;;;;;5043242;28;20995;-82
2023/05/13 04:19:41;;;;;;;28.20;25.77;;;;;;;;;;5043690;28;20500;-82
2023/05/13 04:22:08;;;;;;;26.50;24.87;;;;;;;;;;5043232;28;20903;-82
2023/05/13 04:24:35;;;;;;;27.97;25.97;;;;;;;;;;5043448;28;20864;-81
2023/05/13 04:27:02;;;;;;;26.70;24.80;;;;;;;;;;5042972;28;20410;-81
2023/05/13 04:29:29;;;;;;;27.47;25.80;;;;;;;;;;5043121;28;20517;-81
2023/05/13 04:31:58;;;;;;;27.87;26.17;;;;;;;;;;5042992;28;20451;-82
2023/05/13 04:34:25;;;;;;;30.80;28.33;;;;;;;;;;5042682;28;20422;-81
2023/05/13 04:36:52;;;;;;;28.67;26.77;;;;;;;;;;5042123;28;20425;-81
2023/05/13 04:39:19;;;;;;;26.57;24.87;;;;;;;;;;5042112;28;20855;-81
2023/05/13 04:41:45;;;;;;;27.23;25.50;;;;;;;;;;5042352;28;20422;-80
2023/05/13 04:44:12;;;;;;;26.83;25.13;;;;;;;;;;5042301;28;20444;-82
2023/05/13 04:46:42;;;;;;;26.23;24.53;;;;;;;;;;5042123;28;20447;-81
2023/05/13 04:49:10;;;;;;;28.57;26.57;;;;;;;;;;5041976;28;20468;-82
2023/05/13 04:51:37;;;;;;;28.30;26.50;;;;;;;;;;5044936;28;20452;-81
2023/05/13 04:54:04;;;;;;;27.60;25.80;;;;;;;;;;5047438;28;20430;-81
2023/05/13 04:56:31;;;;;;;27.10;25.40;;;;;;;;;;5042965;28;20419;-82
2023/05/13 04:58:58;;;;;;;28.40;26.30;;;;;;;;;;5044651;28;20450;-82
2023/05/13 05:01:25;;;;;;;27.30;25.50;;;;;;;;;;5043519;28;20430;-81
2023/05/13 05:03:52;;;;;;;28.27;26.47;;;;;;;;;;5043296;28;20455;-82
2023/05/13 05:06:20;;;;;;;28.03;26.23;;;;;;;;;;5040458;28;21019;-82
2023/05/13 05:08:47;;;;;;;28.83;26.73;;;;;;;;;;5043228;28;20451;-82
2023/05/13 05:11:14;;;;;;;27.93;26.13;;;;;;;;;;5042224;28;20455;-83
2023/05/13 05:13:41;;;;;;;27.40;25.70;;;;;;;;;;5042708;28;20461;-82
2023/05/13 05:16:08;;;;;;;28.17;26.37;;;;;;;;;;5042465;28;20418;-82
2023/05/13 05:18:35;;;;;;;28.43;26.53;;;;;;;;;;5041695;28;20509;-81
2023/05/13 05:21:02;;;;;;;28.70;26.80;;;;;;;;;;5041928;28;20434;-81
2023/05/13 05:23:31;;;;;;;30.20;27.60;;;;;;;;;;5041479;28;20883;-81
2023/05/13 05:25:58;;;;;;;27.53;25.90;;;;;;;;;;5041169;28;20458;-82
2023/05/13 05:28:25;;;;;;;27.10;25.47;;;;;;;;;;5042381;28;20450;-81
2023/05/13 05:30:53;;;;;;;27.80;25.90;;;;;;;;;;5041381;28;20442;-81
2023/05/13 05:33:20;;;;;;;27.70;25.80;;;;;;;;;;5041465;28;20455;-81
2023/05/13 05:35:47;;;;;;;25.83;24.17;;;;;;;;;;5040956;28;20478;-81
2023/05/13 05:38:14;;;;;;;25.57;23.77;;;;;;;;;;5041078;28;20466;-82
2023/05/13 05:40:43;;;;;;;25.40;23.80;;;;;;;;;;5040052;28;20457;-81
2023/05/13 05:43:10;;;;;;;27.70;25.53;;;;;;;;;;5040743;28;20851;-82
2023/05/13 05:45:38;;;;;;;26.70;25.00;;;;;;;;;;5040284;28;20483;-82
2023/05/13 05:48:05;;;;;;;27.30;25.23;;;;;;;;;;5040596;28;20865;-81
2023/05/13 05:50:33;;;;;;;26.50;24.80;;;;;;;;;;5040193;28;20458;-82
2023/05/13 05:53:00;;;;;;;27.13;25.43;;;;;;;;;;5040579;28;20451;-86
2023/05/13 05:55:27;;;;;;;26.20;24.43;;;;;;;;;;5040102;28;20470;-80
2023/05/13 05:57:56;;;;;;;27.10;25.50;;;;;;;;;;5040069;28;20853;-81
2023/05/13 06:00:23;;;;;;;27.00;25.40;;;;;;;;;;5038914;28;20484;-81
2023/05/13 06:02:50;;;;;;;26.90;25.00;;;;;;;;;;5044908;28;20456;-81
2023/05/13 06:05:17;;;;;;;26.17;24.27;;;;;;;;;;5042919;28;20458;-81
2023/05/13 06:07:44;;;;;;;25.93;24.23;;;;;;;;;;5041162;28;20466;-82
2023/05/13 06:10:11;;;;;;;25.73;24.07;;;;;;;;;;5041055;28;20438;-81
2023/05/13 06:12:39;;;;;;;26.97;25.27;;;;;;;;;;5041573;28;20509;-81
2023/05/13 06:15:09;;;;;;;26.63;24.87;;;;;;;;;;5041467;28;20478;-81
2023/05/13 06:17:36;;;;;;;26.40;24.60;;;;;;;;;;5040665;28;20505;-80
2023/05/13 06:20:04;;;;;;;27.20;25.30;;;;;;;;;;5040437;28;20426;-81
2023/05/13 06:22:31;;;;;;;24.90;23.40;;;;;;;;;;5040141;28;20472;-81
2023/05/13 06:24:58;;;;;;;26.67;24.77;;;;;;;;;;5039651;28;20458;-81
2023/05/13 06:27:25;;;;;;;26.57;24.87;;;;;;;;;;5039057;28;20475;-80
2023/05/13 06:29:52;;;;;;;26.33;24.50;;;;;;;;;;5039920;28;20464;-81
2023/05/13 06:32:21;;;;;;;27.77;25.50;;;;;;;;;;5039613;28;20425;-81
2023/05/13 06:34:50;;;;;;;26.63;24.93;;;;;;;;;;5042934;28;20998;-82
2023/05/13 06:37:17;;;;;;;27.30;25.50;;;;;;;;;;5041878;28;20440;-82
2023/05/13 06:39:44;;;;;;;27.50;25.40;;;;;;;;;;5041059;28;20584;-82
2023/05/13 06:42:11;;;;;;;26.53;24.83;;;;;;;;;;5040851;28;20462;-82
2023/05/13 06:44:38;;;;;;;25.90;24.10;;;;;;;;;;5042403;28;20460;-81
2023/05/13 06:47:05;;;;;;;27.80;25.90;;;;;;;;;;5040496;28;20466;-82
2023/05/13 06:49:34;;;;;;;28.07;25.60;;;;;;;;;;5039971;28;20466;-81
2023/05/13 06:52:01;;;;;;;27.30;25.40;;;;;;;;;;5040106;28;20934;-82
2023/05/13 06:54:29;;;;;;;26.00;24.40;;;;;;;;;;5035180;28;20468;-81
2023/05/13 06:56:56;;;;;;;26.60;24.43;;;;;;;;;;5037061;28;20492;-81
2023/05/13 06:59:23;;;;;;;25.70;24.13;;;;;;;;;;5026817;28;20430;-81
2023/05/13 07:01:50;;;;;;;25.40;23.80;;;;;;;;;;5025746;28;20447;-82
2023/05/13 07:04:17;;;;;;;27.27;25.10;;;;;;;;;;5040138;28;21057;-82
2023/05/13 07:06:46;;;;;;;27.83;26.00;;;;;;;;;;5039049;28;20458;-82
2023/05/13 07:09:13;;;;;;;26.30;24.60;;;;;;;;;;5038377;28;20862;-82
2023/05/13 07:11:40;;;;;;;26.67;24.87;;;;;;;;;;5040368;28;20452;-82
2023/05/13 07:14:07;;;;;;;27.03;25.33;;;;;;;;;;5042502;28;20501;-86
2023/05/13 07:16:34;;;;;;;26.10;24.27;;;;;;;;;;5036342;28;20453;-81
2023/05/13 07:19:01;;;;;;;26.00;24.30;;;;;;;;;;5040396;28;20489;-81
2023/05/13 07:21:28;;;;;;;26.40;24.70;;;;;;;;;;5037838;28;20493;-80
2023/05/13 07:23:57;;;;;;;26.37;24.50;;;;;;;;;;5037957;28;20506;-81
2023/05/13 07:26:24;;;;;;;25.97;24.17;;;;;;;;;;5036635;28;20466;-80
2023/05/13 07:28:51;;;;;;;26.47;24.60;;;;;;;;;;5038123;28;20889;-80
2023/05/13 07:31:18;;;;;;;27.30;25.63;;;;;;;;;;5034467;28;20860;-80
2023/05/13 07:33:45;;;;;;;28.27;26.13;;;;;;;;;;5023744;28;20505;-80
2023/05/13 07:36:12;;;;;;;27.87;26.03;;;;;;;;;;5037236;28;20452;-80
2023/05/13 07:38:39;;;;;;;28.60;26.60;;;;;;;;;;5042699;28;20422;-80
2023/05/13 07:41:07;;;;;;;26.60;24.67;;;;;;;;;;5039826;28;20444;-80
2023/05/13 07:43:34;;;;;;;26.77;24.87;;;;;;;;;;5039833;28;20460;-81
2023/05/13 07:46:02;;;;;;;27.47;25.77;;;;;;;;;;5037695;28;20836;-81
2023/05/13 07:48:29;;;;;;;27.70;25.83;;;;;;;;;;5040322;28;20447;-80
2023/05/13 07:50:56;;;;;;;29.13;26.87;;;;;;;;;;5038754;28;20475;-80
2023/05/13 07:53:23;;;;;;;27.80;26.10;;;;;;;;;;5038504;28;20514;-81
2023/05/13 07:55:51;;;;;;;29.80;27.60;;;;;;;;;;5038418;28;20839;-81
2023/05/13 07:58:19;;;;;;;27.50;25.90;;;;;;;;;;5036895;28;20488;-82
2023/05/13 08:00:48;;;;;;;29.47;27.27;;;;;;;;;;5037369;28;20471;-78
2023/05/13 08:03:15;;;;;;;29.00;27.30;;;;;;;;;;5036905;28;20441;-79
2023/05/13 08:05:42;;;;;;;29.87;28.10;;;;;;;;;;5035667;28;20589;-82
2023/05/13 08:08:09;;;;;;;30.20;28.30;;;;;;;;;;5036619;28;20497;-79
2023/05/13 08:10:36;;;;;;;31.23;29.03;;;;;;;;;;5027948;28;20507;-79
2023/05/13 08:13:03;;;;;;;29.47;27.60;;;;;;;;;;5016457;28;20437;-78
2023/05/13 08:15:31;;;;;;;29.67;27.60;;;;;;;;;;5016920;28;20498;-78
2023/05/13 08:17:58;;;;;;;28.53;26.83;;;;;;;;;;5016915;28;20417;-79
2023/05/13 08:20:28;;;;;;;27.57;25.77;;;;;;;;;;5016097;28;21241;-79
2023/05/13 08:22:56;;;;;;;26.17;24.53;;;;;;;;;;5018603;28;20862;-79
2023/05/13 08:25:23;;;;;;;27.20;25.37;;;;;;;;;;5017795;28;20488;-78
2023/05/13 08:27:50;;;;;;;27.97;25.93;;;;;;;;;;5018134;28;20459;-78
2023/05/13 08:30:17;;;;;;;27.90;26.00;;;;;;;;;;5017641;28;20472;-78
2023/05/13 08:32:46;;;;;;;26.17;24.60;;;;;;;;;;5019758;28;20443;-80
2023/05/13 08:35:13;;;;;;;26.27;24.57;;;;;;;;;;5025552;28;20449;-79
2023/05/13 08:37:40;;;;;;;26.57;24.83;;;;;;;;;;5019905;28;20518;-80
2023/05/13 08:40:08;;;;;;;26.50;25.00;;;;;;;;;;5018684;28;20504;-80
2023/05/13 08:42:36;;;;;;;27.17;25.47;;;;;;;;;;5019172;28;20539;-81
2023/05/13 08:45:05;;;;;;;25.80;24.20;;;;;;;;;;5019598;28;20483;-79
2023/05/13 08:47:34;;;;;;;26.70;24.70;;;;;;;;;;5019060;28;20462;-80
2023/05/13 08:50:03;;;;;;;26.37;24.70;;;;;;;;;;5019261;28;20813;-79
2023/05/13 08:52:30;;;;;;;26.27;24.50;;;;;;;;;;5019395;28;20877;-79
2023/05/13 08:54:59;;;;;;;26.77;25.07;;;;;;;;;;5027300;28;20466;-79
2023/05/13 08:57:26;;;;;;;25.37;23.70;;;;;;;;;;5037444;28;20542;-78
2023/05/13 08:59:53;;;;;;;25.40;23.90;;;;;;;;;;5055706;28;20423;-79
2023/05/13 09:02:20;;;;;;;25.90;23.80;;;;;;;;;;5044778;28;20430;-80
2023/05/13 09:04:50;;;;;;;25.60;24.07;;;;;;;;;;5039627;28;20835;-79
2023/05/13 09:07:19;;;;;;;26.10;24.30;;;;;;;;;;5037473;28;20475;-79
2023/05/13 09:09:46;;;;;;;26.37;24.57;;;;;;;;;;5039189;28;20499;-79
2023/05/13 09:12:13;;;;;;;26.20;24.43;;;;;;;;;;5039414;28;20904;-79
2023/05/13 09:14:39;;;;;;;25.67;24.07;;;;;;;;;;5039440;28;20490;-80
2023/05/13 09:17:07;;;;;;;25.07;23.57;;;;;;;;;;5037764;28;20504;-79
2023/05/13 09:19:34;;;;;;;26.13;24.33;;;;;;;;;;5037767;28;20465;-79
2023/05/13 09:22:01;;;;;;;27.63;25.30;;;;;;;;;;5037540;28;20480;-79
2023/05/13 09:24:29;;;;;;;25.40;23.80;;;;;;;;;;5036435;28;20446;-79
2023/05/13 09:26:56;;;;;;;25.90;24.30;;;;;;;;;;5037001;28;20464;-79
2023/05/13 09:29:24;;;;;;;25.87;24.20;;;;;;;;;;5037278;28;20465;-79
2023/05/13 09:31:52;;;;;;;27.63;25.73;;;;;;;;;;5037259;28;20818;-80
2023/05/13 09:34:25;;;;;;;25.50;23.90;;;;;;;;;;5036260;28;20508;-79
2023/05/13 09:36:56;;;;;;;27.93;26.00;;;;;;;;;;5036210;28;20441;-80
2023/05/13 09:39:22;;;;;;;25.70;24.10;;;;;;;;;;5036531;28;20468;-79
2023/05/13 09:41:51;;;;;;;26.80;24.83;;;;;;;;;;5035362;28;20465;-79
2023/05/13 09:44:18;;;;;;;27.00;25.40;;;;;;;;;;5036246;28;20830;-79
2023/05/13 09:46:45;;;;;;;25.43;23.93;;;;;;;;;;5035581;28;20495;-79
2023/05/13 09:49:12;;;;;;;26.10;24.50;;;;;;;;;;5036478;28;20464;-79
2023/05/13 09:51:39;;;;;;;27.27;25.57;;;;;;;;;;5036231;28;20469;-84
2023/05/13 09:54:06;;;;;;;25.80;24.03;;;;;;;;;;5036666;28;20999;-79
2023/05/13 09:56:33;;;;;;;25.57;23.97;;;;;;;;;;5034989;28;20468;-79
2023/05/13 09:59:02;;;;;;;25.27;23.67;;;;;;;;;;5036416;28;20540;-80
2023/05/13 10:01:29;;;;;;;26.73;24.70;;;;;;;;;;5036724;28;20512;-79
2023/05/13 10:03:58;;;;;;;25.10;23.57;;;;;;;;;;5036281;28;20462;-79
2023/05/13 10:06:26;;;;;;;26.43;24.57;;;;;;;;;;5035657;28;20511;-79
2023/05/13 10:08:54;;;;;;;25.93;24.33;;;;;;;;;;5035406;28;20462;-79
2023/05/13 10:11:21;;;;;;;27.33;25.57;;;;;;;;;;5036325;28;20425;-80
2023/05/13 10:13:50;;;;;;;26.80;25.10;;;;;;;;;;5036091;28;20821;-79
2023/05/13 10:16:19;;;;;;;27.47;25.67;;;;;;;;;;5035060;28;20440;-79
2023/05/13 10:18:46;;;;;;;27.70;25.70;;;;;;;;;;5035758;28;20834;-79
2023/05/13 10:21:13;;;;;;;27.33;25.63;;;;;;;;;;5035661;28;20929;-80
2023/05/13 10:23:40;;;;;;;28.37;26.30;;;;;;;;;;5035606;28;20830;-79
2023/05/13 10:26:08;;;;;;;26.27;24.37;;;;;;;;;;5034622;28;20849;-80
2023/05/13 10:28:34;;;;;;;26.60;24.77;;;;;;;;;;5035540;28;20523;-79
2023/05/13 10:31:01;;;;;;;25.73;24.13;;;;;;;;;;5035865;28;20427;-79
2023/05/13 10:33:31;;;;;;;26.90;24.87;;;;;;;;;;5035964;28;20428;-79
2023/05/13 10:36:03;;;;;;;26.90;25.10;;;;;;;;;;5035291;28;20439;-79
2023/05/13 10:38:37;;;;;;;27.17;24.87;;;;;;;;;;5035911;28;20500;-79
2023/05/13 10:41:12;;;;;;;27.57;25.67;;;;;;;;;;5035862;28;20906;-79
2023/05/13 10:43:40;;;;;;;27.07;25.17;;;;;;;;;;5035551;28;20453;-79
2023/05/13 10:46:08;;;;;;;27.40;25.40;;;;;;;;;;5035955;28;20463;-79
2023/05/13 10:48:41;;;;;;;26.53;24.93;;;;;;;;;;5039390;28;20512;-80
2023/05/13 10:51:09;;;;;;;28.10;26.20;;;;;;;;;;5039036;28;20503;-80
2023/05/13 10:53:37;;;;;;;27.40;25.60;;;;;;;;;;5039084;28;20447;-79
2023/05/13 10:56:06;;;;;;;26.77;24.97;;;;;;;;;;5038497;28;21216;-79
2023/05/13 10:58:35;;;;;;;26.10;24.50;;;;;;;;;;5039639;28;20487;-79
2023/05/13 11:01:15;;;;;;;28.43;26.23;;;;;;;;;;5039707;28;20537;-80
2023/05/13 11:03:50;;;;;;;27.37;25.60;;;;;;;;;;5039799;28;20462;-79
2023/05/13 11:06:19;;;;;;;27.40;24.90;;;;;;;;;;5039733;28;20404;-79
2023/05/13 11:08:46;;;;;;;27.33;25.30;;;;;;;;;;5040446;28;20455;-79
2023/05/13 11:11:24;;;;;;;26.80;24.90;;;;;;;;;;5040021;28;20797;-80
2023/05/13 11:13:51;;;;;;;27.63;25.83;;;;;;;;;;5042295;28;20437;-79
2023/05/13 11:16:18;;;;;;;26.33;24.53;;;;;;;;;;5040397;28;20444;-79
2023/05/13 11:18:47;;;;;;;28.87;26.87;;;;;;;;;;5039210;28;20466;-80
2023/05/13 11:21:15;;;;;;;28.77;26.77;;;;;;;;;;5038536;28;20438;-78
2023/05/13 11:23:52;;;;;;;26.13;24.53;;;;;;;;;;5038895;28;20486;-79
2023/05/13 11:26:20;;;;;;;28.10;26.20;;;;;;;;;;5038573;28;20450;-79
2023/05/13 11:28:53;;;;;;;28.67;26.73;;;;;;;;;;5038813;28;20455;-79
2023/05/13 11:31:21;;;;;;;26.97;25.17;;;;;;;;;;5038089;28;20954;-79
2023/05/13 11:34:03;;;;;;;29.07;27.03;;;;;;;;;;5039324;28;20452;-79
2023/05/13 11:36:32;;;;;;;27.73;25.93;;;;;;;;;;5037866;28;20470;-79
2023/05/13 11:39:05;;;;;;;27.67;25.87;;;;;;;;;;5039505;28;20445;-79
2023/05/13 11:41:32;;;;;;;27.60;25.70;;;;;;;;;;5039506;28;20455;-79
2023/05/13 11:44:02;;;;;;;27.13;25.00;;;;;;;;;;5038622;28;20836;-79
2023/05/13 11:46:29;;;;;;;28.30;26.40;;;;;;;;;;5037419;28;20450;-79
2023/05/13 11:48:56;;;;;;;27.50;25.60;;;;;;;;;;5038492;28;20486;-79
2023/05/13 11:51:24;;;;;;;27.80;26.00;;;;;;;;;;5038974;28;20469;-79
2023/05/13 11:53:52;;;;;;;26.70;25.00;;;;;;;;;;5039252;28;20452;-79
2023/05/13 11:56:19;;;;;;;26.83;25.03;;;;;;;;;;5037248;28;20425;-78
2023/05/13 11:58:46;;;;;;;29.37;26.40;;;;;;;;;;5036802;28;20391;-79
2023/05/13 12:01:15;;;;;;;27.30;25.50;;;;;;;;;;5037895;28;20425;-79
2023/05/13 12:03:42;;;;;;;24.53;22.93;;;;;;;;;;5038380;28;20533;-79
2023/05/13 12:06:09;;;;;;;26.57;24.80;;;;;;;;;;5037568;28;20455;-79
2023/05/13 12:08:44;;;;;;;26.60;24.90;;;;;;;;;;5037687;28;20483;-79
2023/05/13 12:11:13;;;;;;;26.03;24.30;;;;;;;;;;5037789;28;20920;-78
2023/05/13 12:13:40;;;;;;;26.73;24.80;;;;;;;;;;5040246;28;20959;-79
2023/05/13 12:16:07;;;;;;;26.10;24.43;;;;;;;;;;5042502;28;20433;-79
2023/05/13 12:18:35;;;;;;;26.93;25.20;;;;;;;;;;5042360;28;20509;-79
2023/05/13 12:21:13;;;;;;;25.93;24.30;;;;;;;;;;5042208;28;20451;-79
2023/05/13 12:23:40;;;;;;;25.67;24.00;;;;;;;;;;5042469;28;20454;-79
2023/05/13 12:26:08;;;;;;;25.37;23.70;;;;;;;;;;5040769;28;20440;-79
2023/05/13 12:28:36;;;;;;;26.87;25.03;;;;;;;;;;5042256;28;20454;-79
2023/05/13 12:31:05;;;;;;;26.03;24.43;;;;;;;;;;5041362;28;20497;-79
2023/05/13 12:33:33;;;;;;;25.80;24.10;;;;;;;;;;5041211;28;20467;-79
2023/05/13 12:36:18;;;;;;;26.17;24.60;;;;;;;;;;5040375;28;20467;-79
2023/05/13 12:38:56;;;;;;;26.37;24.70;;;;;;;;;;5039912;28;20528;-79
2023/05/13 12:41:24;;;;;;;26.10;24.40;;;;;;;;;;5040460;28;20434;-79
2023/05/13 12:43:55;;;;;;;27.27;25.17;;;;;;;;;;5039993;28;20519;-79
2023/05/13 12:46:23;;;;;;;26.57;24.87;;;;;;;;;;5039614;28;20512;-79
2023/05/13 12:48:52;;;;;;;25.67;24.07;;;;;;;;;;5040370;28;20577;-79
2023/05/13 12:51:20;;;;;;;25.23;23.63;;;;;;;;;;5040004;28;20438;-79
2023/05/13 12:53:47;;;;;;;25.20;23.53;;;;;;;;;;5039124;28;20530;-79
2023/05/13 12:56:14;;;;;;;25.63;24.03;;;;;;;;;;5038497;28;20444;-79
2023/05/13 12:58:41;;;;;;;26.43;24.63;;;;;;;;;;5040001;28;20475;-79
2023/05/13 13:01:09;;;;;;;25.30;23.70;;;;;;;;;;5040077;28;20455;-79
2023/05/13 13:03:36;;;;;;;25.13;23.50;;;;;;;;;;5039837;28;20455;-79
2023/05/13 13:06:03;;;;;;;26.53;24.83;;;;;;;;;;5040475;28;20443;-79
2023/05/13 13:08:30;;;;;;;27.07;25.37;;;;;;;;;;5043432;28;20495;-79
2023/05/13 13:10:58;;;;;;;26.60;25.00;;;;;;;;;;5038479;28;20503;-79
2023/05/13 13:13:25;;;;;;;26.10;24.30;;;;;;;;;;5039481;28;20530;-79
2023/05/13 13:15:53;;;;;;;26.00;24.30;;;;;;;;;;5038427;28;20463;-79
2023/05/13 13:18:23;;;;;;;26.00;24.40;;;;;;;;;;5038783;28;20425;-79
2023/05/13 13:20:50;;;;;;;26.73;24.63;;;;;;;;;;5038171;28;21051;-79
2023/05/13 13:23:17;;;;;;;25.70;23.80;;;;;;;;;;5038409;28;20456;-79
2023/05/13 13:25:44;;;;;;;24.90;23.30;;;;;;;;;;5037581;28;20796;-79
2023/05/13 13:28:11;;;;;;;24.97;23.37;;;;;;;;;;5037919;28;20483;-79
2023/05/13 13:30:38;;;;;;;25.43;23.83;;;;;;;;;;5038347;28;20478;-79
2023/05/13 13:33:05;;;;;;;26.70;24.90;;;;;;;;;;5037489;28;21006;-79
2023/05/13 13:35:33;;;;;;;25.40;23.90;;;;;;;;;;5037704;28;20454;-78
2023/05/13 13:38:00;;;;;;;26.40;24.60;;;;;;;;;;5040546;28;20455;-79
2023/05/13 13:40:27;;;;;;;26.80;25.10;;;;;;;;;;5037916;28;20473;-79
2023/05/13 13:42:54;;;;;;;26.33;24.70;;;;;;;;;;5037712;28;20456;-79
2023/05/13 13:45:22;;;;;;;25.83;24.03;;;;;;;;;;5036983;28;20521;-79
2023/05/13 13:47:50;;;;;;;27.00;25.30;;;;;;;;;;5036718;28;20582;-79
2023/05/13 13:50:17;;;;;;;26.43;24.70;;;;;;;;;;5036940;28;20674;-79
2023/05/13 13:52:45;;;;;;;27.60;25.60;;;;;;;;;;5036289;28;20510;-79
2023/05/13 13:55:13;;;;;;;26.83;24.93;;;;;;;;;;5036738;28;20452;-79
2023/05/13 13:57:40;;;;;;;27.87;25.87;;;;;;;;;;5035987;28;20444;-79
2023/05/13 14:00:08;;;;;;;25.90;24.30;;;;;;;;;;5056093;28;20442;-78
2023/05/13 14:02:35;;;;;;;26.67;24.97;;;;;;;;;;5057492;28;20455;-79
2023/05/13 14:05:02;;;;;;;26.33;24.73;;;;;;;;;;5056900;28;20443;-79
2023/05/13 14:07:29;;;;;;;28.43;26.43;;;;;;;;;;5039298;28;20484;-79
2023/05/13 14:09:57;;;;;;;26.33;24.63;;;;;;;;;;5037336;28;20494;-79
2023/05/13 14:12:24;;;;;;;27.20;25.47;;;;;;;;;;5037717;28;20505;-79
2023/05/13 14:14:51;;;;;;;28.10;26.10;;;;;;;;;;5037255;28;20483;-79
2023/05/13 14:17:18;;;;;;;27.10;25.20;;;;;;;;;;5037067;28;20447;-79
2023/05/13 14:19:45;;;;;;;26.03;24.13;;;;;;;;;;5035960;28;20546;-79